sensor_id;sensor_type;location;lat;lon;timestamp;temperature;humidity
31677;DHT22;18385;51.572;6.578;2022-12-26T00:01:01;14.30;76.60
31677;DHT22;18385;51.572;6.578;2022-12-26T00:03:30;14.30;76.60
31677;DHT22;18385;51.572;6.578;2022-12-26T00:05:55;14.30;76.50
31677;DHT22;18385;51.572;6.578;2022-12-26T00:08:21;14.30;76.50
31677;DHT22;18385;51.572;6.578;2022-12-26T00:10:47;14.30;76.50
31677;DHT22;18385;51.572;6.578;2022-12-26T00:13:13;14.30;76.50
31677;DHT22;18385;51.572;6.578;2022-12-26T00:15:39;14.30;76.60
31677;DHT22;18385;51.572;6.578;2022-12-26T00:18:05;14.30;76.60
31677;DHT22;18385;51.572;6.578;2022-12-26T00:20:31;14.30;76.50
31677;DHT22;18385;51.572;6.578;2022-12-26T00:22:56;14.20;76.30
31677;DHT22;18385;51.572;6.578;2022-12-26T00:25:22;14.10;76.30
31677;DHT22;18385;51.572;6.578;2022-12-26T00:27:48;14.10;76.30
31677;DHT22;18385;51.572;6.578;2022-12-26T00:30:13;13.90;76.40
31677;DHT22;18385;51.572;6.578;2022-12-26T00:32:39;13.90;76.60
31677;DHT22;18385;51.572;6.578;2022-12-26T00:35:05;13.80;76.60
31677;DHT22;18385;51.572;6.578;2022-12-26T00:37:30;13.70;76.70
31677;DHT22;18385;51.572;6.578;2022-12-26T00:39:56;13.70;76.90
31677;DHT22;18385;51.572;6.578;2022-12-26T00:42:22;13.70;76.80
31677;DHT22;18385;51.572;6.578;2022-12-26T00:44:47;13.70;76.80
31677;DHT22;18385;51.572;6.578;2022-12-26T00:47:13;13.60;76.80
31677;DHT22;18385;51.572;6.578;2022-12-26T00:49:38;13.60;76.90
31677;DHT22;18385;51.572;6.578;2022-12-26T00:52:04;13.70;77.10
31677;DHT22;18385;51.572;6.578;2022-12-26T00:54:30;13.70;77.00
31677;DHT22;18385;51.572;6.578;2022-12-26T00:56:56;13.70;76.90
31677;DHT22;18385;51.572;6.578;2022-12-26T00:59:21;13.70;76.90
31677;DHT22;18385;51.572;6.578;2022-12-26T01:01:47;13.90;76.90
31677;DHT22;18385;51.572;6.578;2022-12-26T01:04:12;13.90;76.80
31677;DHT22;18385;51.572;6.578;2022-12-26T01:06:38;13.90;76.80
31677;DHT22;18385;51.572;6.578;2022-12-26T01:09:04;13.90;76.80
31677;DHT22;18385;51.572;6.578;2022-12-26T01:11:29;13.90;76.70
31677;DHT22;18385;51.572;6.578;2022-12-26T01:14:15;13.90;76.60
31677;DHT22;18385;51.572;6.578;2022-12-26T01:16:43;14.00;76.70
31677;DHT22;18385;51.572;6.578;2022-12-26T01:19:09;14.00;76.60
31677;DHT22;18385;51.572;6.578;2022-12-26T01:21:36;13.90;76.60
31677;DHT22;18385;51.572;6.578;2022-12-26T01:24:02;14.00;76.60
31677;DHT22;18385;51.572;6.578;2022-12-26T01:26:28;14.00;76.60
31677;DHT22;18385;51.572;6.578;2022-12-26T01:28:54;14.00;76.50
31677;DHT22;18385;51.572;6.578;2022-12-26T01:31:20;14.00;76.60
31677;DHT22;18385;51.572;6.578;2022-12-26T01:33:46;14.00;76.60
31677;DHT22;18385;51.572;6.578;2022-12-26T01:36:13;14.00;76.60
31677;DHT22;18385;51.572;6.578;2022-12-26T01:38:39;14.00;76.60
31677;DHT22;18385;51.572;6.578;2022-12-26T01:41:05;14.00;76.60
31677;DHT22;18385;51.572;6.578;2022-12-26T01:46:14;14.10;76.60
31677;DHT22;18385;51.572;6.578;2022-12-26T01:48:39;14.10;76.60
31677;DHT22;18385;51.572;6.578;2022-12-26T01:51:05;14.10;76.60
31677;DHT22;18385;51.572;6.578;2022-12-26T01:53:38;14.00;76.60
31677;DHT22;18385;51.572;6.578;2022-12-26T01:56:11;14.00;76.60
31677;DHT22;18385;51.572;6.578;2022-12-26T01:58:47;14.00;76.60
31677;DHT22;18385;51.572;6.578;2022-12-26T02:01:14;14.00;76.70
31677;DHT22;18385;51.572;6.578;2022-12-26T02:03:43;14.00;76.60
31677;DHT22;18385;51.572;6.578;2022-12-26T02:06:28;14.10;76.70
31677;DHT22;18385;51.572;6.578;2022-12-26T02:08:54;14.10;76.70
31677;DHT22;18385;51.572;6.578;2022-12-26T02:11:36;14.10;76.60
31677;DHT22;18385;51.572;6.578;2022-12-26T02:14:05;14.20;76.60
31677;DHT22;18385;51.572;6.578;2022-12-26T02:16:32;14.20;76.50
31677;DHT22;18385;51.572;6.578;2022-12-26T02:18:58;14.10;76.50
31677;DHT22;18385;51.572;6.578;2022-12-26T02:24:41;14.20;76.50
31677;DHT22;18385;51.572;6.578;2022-12-26T02:30:02;14.10;76.60
31677;DHT22;18385;51.572;6.578;2022-12-26T02:35:09;14.10;76.60
31677;DHT22;18385;51.572;6.578;2022-12-26T02:38:13;14.10;76.60
31677;DHT22;18385;51.572;6.578;2022-12-26T02:43:33;14.10;76.70
31677;DHT22;18385;51.572;6.578;2022-12-26T02:46:31;14.10;76.60
31677;DHT22;18385;51.572;6.578;2022-12-26T02:52:30;14.00;76.70
31677;DHT22;18385;51.572;6.578;2022-12-26T02:55:21;14.00;76.80
31677;DHT22;18385;51.572;6.578;2022-12-26T03:01:05;14.00;76.60
31677;DHT22;18385;51.572;6.578;2022-12-26T03:03:53;14.00;76.60
31677;DHT22;18385;51.572;6.578;2022-12-26T03:06:40;14.00;76.70
31677;DHT22;18385;51.572;6.578;2022-12-26T03:09:30;14.00;76.60
31677;DHT22;18385;51.572;6.578;2022-12-26T03:15:06;14.00;76.60
31677;DHT22;18385;51.572;6.578;2022-12-26T03:17:39;13.90;76.60
31677;DHT22;18385;51.572;6.578;2022-12-26T03:20:26;13.80;76.70
31677;DHT22;18385;51.572;6.578;2022-12-26T03:23:08;13.90;76.80
31677;DHT22;18385;51.572;6.578;2022-12-26T03:25:44;13.80;76.70
31677;DHT22;18385;51.572;6.578;2022-12-26T03:28:31;13.80;76.70
31677;DHT22;18385;51.572;6.578;2022-12-26T03:30:59;13.70;76.70
31677;DHT22;18385;51.572;6.578;2022-12-26T03:33:28;13.60;76.60
31677;DHT22;18385;51.572;6.578;2022-12-26T03:41:57;13.40;76.90
31677;DHT22;18385;51.572;6.578;2022-12-26T03:44:53;13.30;77.00
31677;DHT22;18385;51.572;6.578;2022-12-26T03:50:37;13.20;77.10
31677;DHT22;18385;51.572;6.578;2022-12-26T03:53:30;13.10;77.20
31677;DHT22;18385;51.572;6.578;2022-12-26T03:56:20;13.10;77.30
31677;DHT22;18385;51.572;6.578;2022-12-26T03:59:13;13.00;77.30
31677;DHT22;18385;51.572;6.578;2022-12-26T04:02:03;13.00;77.30
31677;DHT22;18385;51.572;6.578;2022-12-26T04:04:51;13.00;77.60
31677;DHT22;18385;51.572;6.578;2022-12-26T04:07:41;13.10;77.70
31677;DHT22;18385;51.572;6.578;2022-12-26T04:11:05;13.20;77.50
31677;DHT22;18385;51.572;6.578;2022-12-26T04:14:37;13.30;77.20
31677;DHT22;18385;51.572;6.578;2022-12-26T04:17:53;13.40;77.10
31677;DHT22;18385;51.572;6.578;2022-12-26T04:24:12;13.30;76.90
31677;DHT22;18385;51.572;6.578;2022-12-26T04:27:01;13.20;77.00
31677;DHT22;18385;51.572;6.578;2022-12-26T04:29:47;13.10;77.10
31677;DHT22;18385;51.572;6.578;2022-12-26T04:32:36;13.10;77.20
31677;DHT22;18385;51.572;6.578;2022-12-26T04:35:35;13.10;77.30
31677;DHT22;18385;51.572;6.578;2022-12-26T04:38:27;13.10;77.30
31677;DHT22;18385;51.572;6.578;2022-12-26T04:41:13;13.10;77.20
31677;DHT22;18385;51.572;6.578;2022-12-26T04:44:00;13.10;77.20
31677;DHT22;18385;51.572;6.578;2022-12-26T04:46:36;13.20;77.20
31677;DHT22;18385;51.572;6.578;2022-12-26T04:49:05;13.20;77.10
31677;DHT22;18385;51.572;6.578;2022-12-26T04:51:50;13.20;77.00
31677;DHT22;18385;51.572;6.578;2022-12-26T04:54:16;13.10;77.00
31677;DHT22;18385;51.572;6.578;2022-12-26T04:56:42;13.10;77.00
31677;DHT22;18385;51.572;6.578;2022-12-26T04:59:08;13.10;77.00
31677;DHT22;18385;51.572;6.578;2022-12-26T05:01:33;13.10;77.00
31677;DHT22;18385;51.572;6.578;2022-12-26T05:04:18;13.10;77.00
31677;DHT22;18385;51.572;6.578;2022-12-26T05:07:04;13.00;77.00
31677;DHT22;18385;51.572;6.578;2022-12-26T05:09:52;13.00;77.00
31677;DHT22;18385;51.572;6.578;2022-12-26T05:12:19;12.90;77.20
31677;DHT22;18385;51.572;6.578;2022-12-26T05:14:44;12.90;77.10
31677;DHT22;18385;51.572;6.578;2022-12-26T05:17:12;12.90;77.10
31677;DHT22;18385;51.572;6.578;2022-12-26T05:19:56;12.90;77.10
31677;DHT22;18385;51.572;6.578;2022-12-26T05:22:43;12.90;77.10
31677;DHT22;18385;51.572;6.578;2022-12-26T05:25:32;12.80;77.20
31677;DHT22;18385;51.572;6.578;2022-12-26T05:28:17;12.80;77.10
31677;DHT22;18385;51.572;6.578;2022-12-26T05:31:02;12.70;77.10
31677;DHT22;18385;51.572;6.578;2022-12-26T05:33:28;12.70;77.30
31677;DHT22;18385;51.572;6.578;2022-12-26T05:36:13;12.70;78.00
31677;DHT22;18385;51.572;6.578;2022-12-26T05:38:40;12.70;77.30
31677;DHT22;18385;51.572;6.578;2022-12-26T05:41:05;12.70;77.20
31677;DHT22;18385;51.572;6.578;2022-12-26T05:43:31;12.70;77.20
31677;DHT22;18385;51.572;6.578;2022-12-26T05:45:57;12.70;77.20
31677;DHT22;18385;51.572;6.578;2022-12-26T05:48:23;12.70;77.10
31677;DHT22;18385;51.572;6.578;2022-12-26T05:50:49;12.70;77.10
31677;DHT22;18385;51.572;6.578;2022-12-26T05:53:14;12.70;77.60
31677;DHT22;18385;51.572;6.578;2022-12-26T05:55:40;12.70;77.10
31677;DHT22;18385;51.572;6.578;2022-12-26T05:58:05;12.60;77.10
31677;DHT22;18385;51.572;6.578;2022-12-26T06:00:31;12.60;77.10
31677;DHT22;18385;51.572;6.578;2022-12-26T06:03:00;12.60;77.10
31677;DHT22;18385;51.572;6.578;2022-12-26T06:05:27;12.60;77.20
31677;DHT22;18385;51.572;6.578;2022-12-26T06:07:53;12.60;77.30
31677;DHT22;18385;51.572;6.578;2022-12-26T06:10:19;12.60;77.30
31677;DHT22;18385;51.572;6.578;2022-12-26T06:12:45;12.60;77.30
31677;DHT22;18385;51.572;6.578;2022-12-26T06:15:10;12.60;77.20
31677;DHT22;18385;51.572;6.578;2022-12-26T06:17:38;12.50;77.20
31677;DHT22;18385;51.572;6.578;2022-12-26T06:20:04;12.50;77.20
31677;DHT22;18385;51.572;6.578;2022-12-26T06:22:30;12.50;77.20
31677;DHT22;18385;51.572;6.578;2022-12-26T06:24:56;12.50;77.20
31677;DHT22;18385;51.572;6.578;2022-12-26T06:27:21;12.50;77.20
31677;DHT22;18385;51.572;6.578;2022-12-26T06:29:47;12.50;77.30
31677;DHT22;18385;51.572;6.578;2022-12-26T06:32:13;12.40;77.20
31677;DHT22;18385;51.572;6.578;2022-12-26T06:34:39;12.40;77.20
31677;DHT22;18385;51.572;6.578;2022-12-26T06:37:04;12.40;77.30
31677;DHT22;18385;51.572;6.578;2022-12-26T06:39:30;12.40;77.30
31677;DHT22;18385;51.572;6.578;2022-12-26T06:41:56;12.30;77.30
31677;DHT22;18385;51.572;6.578;2022-12-26T06:44:21;12.30;77.30
31677;DHT22;18385;51.572;6.578;2022-12-26T06:46:47;12.30;77.30
31677;DHT22;18385;51.572;6.578;2022-12-26T06:49:13;12.30;77.40
31677;DHT22;18385;51.572;6.578;2022-12-26T06:51:38;12.30;77.40
31677;DHT22;18385;51.572;6.578;2022-12-26T06:54:04;12.20;77.40
31677;DHT22;18385;51.572;6.578;2022-12-26T06:56:31;12.20;77.60
31677;DHT22;18385;51.572;6.578;2022-12-26T06:59:02;12.20;77.60
31677;DHT22;18385;51.572;6.578;2022-12-26T07:01:30;12.20;77.60
31677;DHT22;18385;51.572;6.578;2022-12-26T07:03:56;12.20;77.60
31677;DHT22;18385;51.572;6.578;2022-12-26T07:06:24;12.20;77.60
31677;DHT22;18385;51.572;6.578;2022-12-26T07:08:52;12.10;77.50
31677;DHT22;18385;51.572;6.578;2022-12-26T07:11:21;12.10;77.50
31677;DHT22;18385;51.572;6.578;2022-12-26T07:13:47;12.10;77.70
31677;DHT22;18385;51.572;6.578;2022-12-26T07:16:13;12.10;77.70
31677;DHT22;18385;51.572;6.578;2022-12-26T07:18:39;12.10;77.80
31677;DHT22;18385;51.572;6.578;2022-12-26T07:21:06;12.20;78.20
31677;DHT22;18385;51.572;6.578;2022-12-26T07:23:32;12.40;78.10
31677;DHT22;18385;51.572;6.578;2022-12-26T07:25:58;12.50;77.80
31677;DHT22;18385;51.572;6.578;2022-12-26T07:28:24;12.60;77.50
31677;DHT22;18385;51.572;6.578;2022-12-26T07:30:50;12.70;77.40
31677;DHT22;18385;51.572;6.578;2022-12-26T07:33:16;12.80;77.40
31677;DHT22;18385;51.572;6.578;2022-12-26T07:35:42;12.90;77.40
31677;DHT22;18385;51.572;6.578;2022-12-26T07:38:09;12.90;77.30
31677;DHT22;18385;51.572;6.578;2022-12-26T07:40:34;13.00;77.30
31677;DHT22;18385;51.572;6.578;2022-12-26T07:43:00;13.10;77.30
31677;DHT22;18385;51.572;6.578;2022-12-26T07:45:26;13.20;77.10
31677;DHT22;18385;51.572;6.578;2022-12-26T07:47:55;13.20;77.00
31677;DHT22;18385;51.572;6.578;2022-12-26T07:50:22;13.30;77.10
31677;DHT22;18385;51.572;6.578;2022-12-26T07:52:47;13.30;76.80
31677;DHT22;18385;51.572;6.578;2022-12-26T07:55:13;13.40;76.80
31677;DHT22;18385;51.572;6.578;2022-12-26T07:57:39;13.40;76.70
31677;DHT22;18385;51.572;6.578;2022-12-26T08:00:05;13.40;76.60
31677;DHT22;18385;51.572;6.578;2022-12-26T08:02:37;13.20;76.30
31677;DHT22;18385;51.572;6.578;2022-12-26T08:05:03;13.10;76.30
31677;DHT22;18385;51.572;6.578;2022-12-26T08:07:29;13.00;76.60
31677;DHT22;18385;51.572;6.578;2022-12-26T08:09:54;12.90;76.70
31677;DHT22;18385;51.572;6.578;2022-12-26T08:12:20;12.80;76.80
31677;DHT22;18385;51.572;6.578;2022-12-26T08:14:50;12.70;76.90
31677;DHT22;18385;51.572;6.578;2022-12-26T08:17:18;12.70;77.00
31677;DHT22;18385;51.572;6.578;2022-12-26T08:19:44;12.70;77.00
31677;DHT22;18385;51.572;6.578;2022-12-26T08:22:09;12.70;77.00
31677;DHT22;18385;51.572;6.578;2022-12-26T08:24:35;12.70;77.00
31677;DHT22;18385;51.572;6.578;2022-12-26T08:27:00;12.70;76.90
31677;DHT22;18385;51.572;6.578;2022-12-26T08:29:28;12.60;76.90
31677;DHT22;18385;51.572;6.578;2022-12-26T08:31:53;12.60;76.90
31677;DHT22;18385;51.572;6.578;2022-12-26T08:34:19;12.60;76.90
31677;DHT22;18385;51.572;6.578;2022-12-26T08:36:44;12.60;76.80
31677;DHT22;18385;51.572;6.578;2022-12-26T08:39:11;12.60;76.80
31677;DHT22;18385;51.572;6.578;2022-12-26T08:41:36;12.60;76.90
31677;DHT22;18385;51.572;6.578;2022-12-26T08:44:02;12.70;77.00
31677;DHT22;18385;51.572;6.578;2022-12-26T08:46:27;12.70;76.90
31677;DHT22;18385;51.572;6.578;2022-12-26T08:48:53;12.80;77.00
31677;DHT22;18385;51.572;6.578;2022-12-26T08:51:21;12.90;76.90
31677;DHT22;18385;51.572;6.578;2022-12-26T08:53:47;13.00;76.80
31677;DHT22;18385;51.572;6.578;2022-12-26T08:56:18;13.10;76.60
31677;DHT22;18385;51.572;6.578;2022-12-26T08:58:44;13.10;76.40
31677;DHT22;18385;51.572;6.578;2022-12-26T09:01:12;13.10;76.30
31677;DHT22;18385;51.572;6.578;2022-12-26T09:03:39;13.10;76.30
31677;DHT22;18385;51.572;6.578;2022-12-26T09:06:05;13.10;76.30
31677;DHT22;18385;51.572;6.578;2022-12-26T09:08:32;13.00;76.40
31677;DHT22;18385;51.572;6.578;2022-12-26T09:11:06;13.00;76.40
31677;DHT22;18385;51.572;6.578;2022-12-26T09:13:33;13.10;76.50
31677;DHT22;18385;51.572;6.578;2022-12-26T09:16:17;13.10;76.50
31677;DHT22;18385;51.572;6.578;2022-12-26T09:18:44;13.10;76.40
31677;DHT22;18385;51.572;6.578;2022-12-26T09:21:12;13.10;76.40
31677;DHT22;18385;51.572;6.578;2022-12-26T09:23:38;13.20;76.40
31677;DHT22;18385;51.572;6.578;2022-12-26T09:26:10;13.30;76.40
31677;DHT22;18385;51.572;6.578;2022-12-26T09:28:36;13.30;76.10
31677;DHT22;18385;51.572;6.578;2022-12-26T09:31:11;13.40;76.10
31677;DHT22;18385;51.572;6.578;2022-12-26T09:33:37;13.40;76.00
31677;DHT22;18385;51.572;6.578;2022-12-26T09:36:11;13.40;75.90
31677;DHT22;18385;51.572;6.578;2022-12-26T09:38:37;13.50;75.90
31677;DHT22;18385;51.572;6.578;2022-12-26T09:44:08;13.80;75.90
31677;DHT22;18385;51.572;6.578;2022-12-26T09:49:21;14.00;75.40
31677;DHT22;18385;51.572;6.578;2022-12-26T09:51:54;14.00;74.80
31677;DHT22;18385;51.572;6.578;2022-12-26T09:54:48;13.90;74.80
31677;DHT22;18385;51.572;6.578;2022-12-26T09:57:20;13.90;74.90
31677;DHT22;18385;51.572;6.578;2022-12-26T09:59:59;13.90;75.00
31677;DHT22;18385;51.572;6.578;2022-12-26T10:02:26;14.00;75.00
31677;DHT22;18385;51.572;6.578;2022-12-26T10:04:53;14.10;75.00
31677;DHT22;18385;51.572;6.578;2022-12-26T10:07:28;14.10;74.70
31677;DHT22;18385;51.572;6.578;2022-12-26T10:12:50;14.40;74.50
31677;DHT22;18385;51.572;6.578;2022-12-26T10:20:22;14.50;73.80
31677;DHT22;18385;51.572;6.578;2022-12-26T10:25:50;14.50;73.70
31677;DHT22;18385;51.572;6.578;2022-12-26T10:28:29;14.60;73.60
31677;DHT22;18385;51.572;6.578;2022-12-26T10:30:59;14.60;74.30
31677;DHT22;18385;51.572;6.578;2022-12-26T10:33:53;14.60;73.40
31677;DHT22;18385;51.572;6.578;2022-12-26T10:36:35;14.50;73.30
31677;DHT22;18385;51.572;6.578;2022-12-26T10:39:04;14.50;73.30
31677;DHT22;18385;51.572;6.578;2022-12-26T10:41:36;14.60;73.20
31677;DHT22;18385;51.572;6.578;2022-12-26T10:44:09;14.60;73.20
31677;DHT22;18385;51.572;6.578;2022-12-26T10:47:05;14.60;73.00
31677;DHT22;18385;51.572;6.578;2022-12-26T10:49:32;14.60;72.90
31677;DHT22;18385;51.572;6.578;2022-12-26T10:51:59;14.50;72.80
31677;DHT22;18385;51.572;6.578;2022-12-26T10:54:26;14.50;72.80
31677;DHT22;18385;51.572;6.578;2022-12-26T10:56:55;14.50;72.80
31677;DHT22;18385;51.572;6.578;2022-12-26T10:59:34;14.50;72.80
31677;DHT22;18385;51.572;6.578;2022-12-26T11:05:03;14.50;72.50
31677;DHT22;18385;51.572;6.578;2022-12-26T11:07:33;14.60;72.60
31677;DHT22;18385;51.572;6.578;2022-12-26T11:10:00;14.60;72.40
31677;DHT22;18385;51.572;6.578;2022-12-26T11:12:40;14.50;72.00
31677;DHT22;18385;51.572;6.578;2022-12-26T11:18:20;14.50;71.80
31677;DHT22;18385;51.572;6.578;2022-12-26T11:20:48;14.30;71.70
31677;DHT22;18385;51.572;6.578;2022-12-26T11:23:29;14.30;72.10
31677;DHT22;18385;51.572;6.578;2022-12-26T11:26:00;14.40;72.10
31677;DHT22;18385;51.572;6.578;2022-12-26T11:28:30;14.50;72.00
31677;DHT22;18385;51.572;6.578;2022-12-26T11:30:58;14.50;72.10
31677;DHT22;18385;51.572;6.578;2022-12-26T11:33:30;14.60;71.70
31677;DHT22;18385;51.572;6.578;2022-12-26T11:38:59;14.80;71.40
31677;DHT22;18385;51.572;6.578;2022-12-26T11:46:59;15.10;70.70
31677;DHT22;18385;51.572;6.578;2022-12-26T11:49:35;15.10;70.70
31677;DHT22;18385;51.572;6.578;2022-12-26T12:00:37;13.90;69.60
31677;DHT22;18385;51.572;6.578;2022-12-26T12:03:12;13.20;70.60
31677;DHT22;18385;51.572;6.578;2022-12-26T12:11:34;12.20;73.00
31677;DHT22;18385;51.572;6.578;2022-12-26T12:14:11;12.00;74.20
31677;DHT22;18385;51.572;6.578;2022-12-26T12:27:55;12.30;73.30
31677;DHT22;18385;51.572;6.578;2022-12-26T12:56:48;12.70;72.50
31677;DHT22;18385;51.572;6.578;2022-12-26T13:02:38;12.50;72.40
31677;DHT22;18385;51.572;6.578;2022-12-26T13:05:37;12.50;72.40
31677;DHT22;18385;51.572;6.578;2022-12-26T13:08:15;12.40;72.40
31677;DHT22;18385;51.572;6.578;2022-12-26T13:10:50;12.30;72.40
31677;DHT22;18385;51.572;6.578;2022-12-26T13:13:33;12.30;72.40
31677;DHT22;18385;51.572;6.578;2022-12-26T13:16:07;12.20;72.30
31677;DHT22;18385;51.572;6.578;2022-12-26T13:18:38;12.20;72.30
31677;DHT22;18385;51.572;6.578;2022-12-26T13:21:08;12.10;72.10
31677;DHT22;18385;51.572;6.578;2022-12-26T13:23:51;12.00;72.40
31677;DHT22;18385;51.572;6.578;2022-12-26T13:26:44;12.10;72.40
31677;DHT22;18385;51.572;6.578;2022-12-26T13:29:30;12.00;72.40
31677;DHT22;18385;51.572;6.578;2022-12-26T13:31:58;11.90;72.10
31677;DHT22;18385;51.572;6.578;2022-12-26T13:34:25;11.90;72.30
31677;DHT22;18385;51.572;6.578;2022-12-26T13:36:53;11.90;72.20
31677;DHT22;18385;51.572;6.578;2022-12-26T13:41:54;11.80;71.90
31677;DHT22;18385;51.572;6.578;2022-12-26T13:44:39;11.80;72.10
31677;DHT22;18385;51.572;6.578;2022-12-26T13:47:09;11.70;71.90
31677;DHT22;18385;51.572;6.578;2022-12-26T13:49:51;11.70;71.90
31677;DHT22;18385;51.572;6.578;2022-12-26T13:52:39;11.80;72.10
31677;DHT22;18385;51.572;6.578;2022-12-26T13:57:37;11.80;72.00
31677;DHT22;18385;51.572;6.578;2022-12-26T14:11:58;11.80;71.70
31677;DHT22;18385;51.572;6.578;2022-12-26T14:20:50;11.70;71.70
31677;DHT22;18385;51.572;6.578;2022-12-26T14:31:36;11.50;71.60
31677;DHT22;18385;51.572;6.578;2022-12-26T14:37:13;11.50;71.60
31677;DHT22;18385;51.572;6.578;2022-12-26T14:40:15;11.40;71.50
31677;DHT22;18385;51.572;6.578;2022-12-26T14:50:51;11.10;71.30
31677;DHT22;18385;51.572;6.578;2022-12-26T14:58:37;11.00;71.30
31677;DHT22;18385;51.572;6.578;2022-12-26T15:03:40;10.90;71.10
31677;DHT22;18385;51.572;6.578;2022-12-26T15:25:49;10.40;71.00
31677;DHT22;18385;51.572;6.578;2022-12-26T15:33:49;9.90;71.30
31677;DHT22;18385;51.572;6.578;2022-12-26T15:37:27;9.80;71.50
31677;DHT22;18385;51.572;6.578;2022-12-26T15:47:57;9.60;71.60
31677;DHT22;18385;51.572;6.578;2022-12-26T15:55:55;9.50;71.80
31677;DHT22;18385;51.572;6.578;2022-12-26T16:01:09;9.50;71.70
31677;DHT22;18385;51.572;6.578;2022-12-26T16:03:38;9.50;71.60
31677;DHT22;18385;51.572;6.578;2022-12-26T16:06:27;9.50;71.60
31677;DHT22;18385;51.572;6.578;2022-12-26T16:14:33;9.40;71.40
31677;DHT22;18385;51.572;6.578;2022-12-26T16:19:42;9.30;71.60
31677;DHT22;18385;51.572;6.578;2022-12-26T16:22:14;9.20;71.60
31677;DHT22;18385;51.572;6.578;2022-12-26T16:25:00;9.20;71.60
31677;DHT22;18385;51.572;6.578;2022-12-26T16:27:28;9.00;71.50
31677;DHT22;18385;51.572;6.578;2022-12-26T16:30:00;9.00;71.70
31677;DHT22;18385;51.572;6.578;2022-12-26T16:32:37;9.00;71.70
31677;DHT22;18385;51.572;6.578;2022-12-26T16:35:05;8.90;71.50
31677;DHT22;18385;51.572;6.578;2022-12-26T16:37:31;8.90;71.70
31677;DHT22;18385;51.572;6.578;2022-12-26T16:43:04;8.80;71.50
31677;DHT22;18385;51.572;6.578;2022-12-26T16:45:33;8.80;71.60
31677;DHT22;18385;51.572;6.578;2022-12-26T16:48:00;8.70;72.30
31677;DHT22;18385;51.572;6.578;2022-12-26T16:50:29;8.60;71.50
31677;DHT22;18385;51.572;6.578;2022-12-26T16:53:12;8.60;71.60
31677;DHT22;18385;51.572;6.578;2022-12-26T16:58:19;8.60;72.40
31677;DHT22;18385;51.572;6.578;2022-12-26T17:00:58;8.70;71.60
31677;DHT22;18385;51.572;6.578;2022-12-26T17:03:28;8.70;71.50
31677;DHT22;18385;51.572;6.578;2022-12-26T17:05:56;8.80;71.30
31677;DHT22;18385;51.572;6.578;2022-12-26T17:08:22;8.70;71.20
31677;DHT22;18385;51.572;6.578;2022-12-26T17:10:49;8.70;71.30
31677;DHT22;18385;51.572;6.578;2022-12-26T17:13:24;8.60;71.20
31677;DHT22;18385;51.572;6.578;2022-12-26T17:15:57;8.60;71.20
31677;DHT22;18385;51.572;6.578;2022-12-26T17:18:36;8.50;71.30
31677;DHT22;18385;51.572;6.578;2022-12-26T17:23:44;8.30;71.30
31677;DHT22;18385;51.572;6.578;2022-12-26T17:26:19;8.30;71.60
31677;DHT22;18385;51.572;6.578;2022-12-26T17:28:45;8.20;71.50
31677;DHT22;18385;51.572;6.578;2022-12-26T17:31:34;8.20;71.50
31677;DHT22;18385;51.572;6.578;2022-12-26T17:34:23;8.20;71.40
31677;DHT22;18385;51.572;6.578;2022-12-26T17:36:49;8.10;71.60
31677;DHT22;18385;51.572;6.578;2022-12-26T17:39:20;8.10;71.50
31677;DHT22;18385;51.572;6.578;2022-12-26T17:41:51;8.10;71.50
31677;DHT22;18385;51.572;6.578;2022-12-26T17:44:36;8.00;71.50
31677;DHT22;18385;51.572;6.578;2022-12-26T17:49:38;7.90;71.60
31677;DHT22;18385;51.572;6.578;2022-12-26T17:52:04;7.80;71.50
31677;DHT22;18385;51.572;6.578;2022-12-26T17:54:30;7.80;71.60
31677;DHT22;18385;51.572;6.578;2022-12-26T17:56:56;7.70;71.50
31677;DHT22;18385;51.572;6.578;2022-12-26T17:59:22;7.70;71.50
31677;DHT22;18385;51.572;6.578;2022-12-26T18:01:47;7.60;71.40
31677;DHT22;18385;51.572;6.578;2022-12-26T18:04:13;7.60;71.60
31677;DHT22;18385;51.572;6.578;2022-12-26T18:06:38;7.60;71.80
31677;DHT22;18385;51.572;6.578;2022-12-26T18:09:05;7.60;71.60
31677;DHT22;18385;51.572;6.578;2022-12-26T18:11:31;7.60;71.60
31677;DHT22;18385;51.572;6.578;2022-12-26T18:13:56;7.50;71.60
31677;DHT22;18385;51.572;6.578;2022-12-26T18:16:22;7.50;71.60
31677;DHT22;18385;51.572;6.578;2022-12-26T18:18:52;7.40;71.70
31677;DHT22;18385;51.572;6.578;2022-12-26T18:21:18;7.50;71.80
31677;DHT22;18385;51.572;6.578;2022-12-26T18:23:44;7.40;71.60
31677;DHT22;18385;51.572;6.578;2022-12-26T18:26:26;7.40;71.50
31677;DHT22;18385;51.572;6.578;2022-12-26T18:28:53;7.40;71.50
31677;DHT22;18385;51.572;6.578;2022-12-26T18:31:20;7.40;71.60
31677;DHT22;18385;51.572;6.578;2022-12-26T18:33:45;7.30;71.60
31677;DHT22;18385;51.572;6.578;2022-12-26T18:36:15;7.20;71.60
31677;DHT22;18385;51.572;6.578;2022-12-26T18:38:41;7.20;71.60
31677;DHT22;18385;51.572;6.578;2022-12-26T18:41:16;7.20;71.60
31677;DHT22;18385;51.572;6.578;2022-12-26T18:43:41;7.10;71.60
31677;DHT22;18385;51.572;6.578;2022-12-26T18:46:21;7.10;71.60
31677;DHT22;18385;51.572;6.578;2022-12-26T18:48:48;7.10;71.70
31677;DHT22;18385;51.572;6.578;2022-12-26T18:51:14;7.00;71.70
31677;DHT22;18385;51.572;6.578;2022-12-26T18:53:40;7.00;71.80
31677;DHT22;18385;51.572;6.578;2022-12-26T18:56:08;7.10;71.80
31677;DHT22;18385;51.572;6.578;2022-12-26T18:58:36;7.10;71.70
31677;DHT22;18385;51.572;6.578;2022-12-26T19:01:02;7.00;71.70
31677;DHT22;18385;51.572;6.578;2022-12-26T19:03:28;7.00;71.60
31677;DHT22;18385;51.572;6.578;2022-12-26T19:05:54;7.00;71.60
31677;DHT22;18385;51.572;6.578;2022-12-26T19:08:20;7.00;71.70
31677;DHT22;18385;51.572;6.578;2022-12-26T19:10:45;6.90;71.60
31677;DHT22;18385;51.572;6.578;2022-12-26T19:13:12;6.90;71.60
31677;DHT22;18385;51.572;6.578;2022-12-26T19:15:37;6.90;71.60
31677;DHT22;18385;51.572;6.578;2022-12-26T19:18:08;6.90;71.60
31677;DHT22;18385;51.572;6.578;2022-12-26T19:20:34;6.80;71.60
31677;DHT22;18385;51.572;6.578;2022-12-26T19:23:00;6.80;71.70
31677;DHT22;18385;51.572;6.578;2022-12-26T19:25:26;6.90;71.70
31677;DHT22;18385;51.572;6.578;2022-12-26T19:27:52;6.80;71.70
31677;DHT22;18385;51.572;6.578;2022-12-26T19:30:18;6.80;71.60
31677;DHT22;18385;51.572;6.578;2022-12-26T19:32:45;6.80;71.60
31677;DHT22;18385;51.572;6.578;2022-12-26T19:35:12;6.80;71.60
31677;DHT22;18385;51.572;6.578;2022-12-26T19:37:38;6.80;71.60
31677;DHT22;18385;51.572;6.578;2022-12-26T19:40:05;6.80;71.60
31677;DHT22;18385;51.572;6.578;2022-12-26T19:42:31;6.80;71.60
31677;DHT22;18385;51.572;6.578;2022-12-26T19:44:59;6.80;71.60
31677;DHT22;18385;51.572;6.578;2022-12-26T19:47:26;6.80;71.60
31677;DHT22;18385;51.572;6.578;2022-12-26T19:49:51;6.80;71.50
31677;DHT22;18385;51.572;6.578;2022-12-26T19:52:17;6.70;71.50
31677;DHT22;18385;51.572;6.578;2022-12-26T19:54:42;6.70;71.60
31677;DHT22;18385;51.572;6.578;2022-12-26T19:57:08;6.70;71.60